sensor_id;sensor_type;location;lat;lon;timestamp;temperature;humidity
7972;DHT22;4031;49.758;6.120;2023-01-15T00:00:51;7.20;99.90
7972;DHT22;4031;49.758;6.120;2023-01-15T00:03:17;7.10;99.90
7972;DHT22;4031;49.758;6.120;2023-01-15T00:05:43;7.10;99.90
7972;DHT22;4031;49.758;6.120;2023-01-15T00:08:09;7.10;99.90
7972;DHT22;4031;49.758;6.120;2023-01-15T00:10:35;7.00;99.90
7972;DHT22;4031;49.758;6.120;2023-01-15T00:13:00;7.00;99.90
7972;DHT22;4031;49.758;6.120;2023-01-15T00:15:26;6.90;99.90
7972;DHT22;4031;49.758;6.120;2023-01-15T00:17:52;6.80;99.90
7972;DHT22;4031;49.758;6.120;2023-01-15T00:20:18;6.80;99.90
7972;DHT22;4031;49.758;6.120;2023-01-15T00:22:43;6.70;99.90
7972;DHT22;4031;49.758;6.120;2023-01-15T00:25:10;6.70;99.90
7972;DHT22;4031;49.758;6.120;2023-01-15T00:27:54;6.60;99.90
7972;DHT22;4031;49.758;6.120;2023-01-15T00:30:20;6.50;99.90
7972;DHT22;4031;49.758;6.120;2023-01-15T00:32:46;6.50;99.90
7972;DHT22;4031;49.758;6.120;2023-01-15T00:35:17;6.50;99.90
7972;DHT22;4031;49.758;6.120;2023-01-15T00:37:45;6.40;99.90
7972;DHT22;4031;49.758;6.120;2023-01-15T00:40:13;6.40;99.90
7972;DHT22;4031;49.758;6.120;2023-01-15T00:42:39;6.40;99.90
7972;DHT22;4031;49.758;6.120;2023-01-15T00:45:06;6.30;99.90
7972;DHT22;4031;49.758;6.120;2023-01-15T00:47:39;6.30;99.90
7972;DHT22;4031;49.758;6.120;2023-01-15T00:50:08;6.20;99.90
7972;DHT22;4031;49.758;6.120;2023-01-15T00:52:35;6.20;99.90
7972;DHT22;4031;49.758;6.120;2023-01-15T00:55:01;6.10;99.90
7972;DHT22;4031;49.758;6.120;2023-01-15T00:57:27;6.10;99.90
7972;DHT22;4031;49.758;6.120;2023-01-15T00:59:52;6.10;99.90
7972;DHT22;4031;49.758;6.120;2023-01-15T01:02:19;6.00;99.90
7972;DHT22;4031;49.758;6.120;2023-01-15T01:04:44;6.00;99.90
7972;DHT22;4031;49.758;6.120;2023-01-15T01:07:11;6.00;99.90
7972;DHT22;4031;49.758;6.120;2023-01-15T01:09:36;6.00;99.90
7972;DHT22;4031;49.758;6.120;2023-01-15T01:12:02;6.00;99.90
7972;DHT22;4031;49.758;6.120;2023-01-15T01:14:28;5.90;99.90
7972;DHT22;4031;49.758;6.120;2023-01-15T01:16:54;5.90;99.90
7972;DHT22;4031;49.758;6.120;2023-01-15T01:19:21;5.90;99.90
7972;DHT22;4031;49.758;6.120;2023-01-15T01:21:49;5.80;99.90
7972;DHT22;4031;49.758;6.120;2023-01-15T01:24:18;5.80;99.90
7972;DHT22;4031;49.758;6.120;2023-01-15T01:26:47;5.80;99.90
7972;DHT22;4031;49.758;6.120;2023-01-15T01:29:16;5.70;99.90
7972;DHT22;4031;49.758;6.120;2023-01-15T01:31:43;5.70;99.90
7972;DHT22;4031;49.758;6.120;2023-01-15T01:34:10;5.70;99.90
7972;DHT22;4031;49.758;6.120;2023-01-15T01:36:38;5.60;99.90
7972;DHT22;4031;49.758;6.120;2023-01-15T01:39:06;5.60;99.90
7972;DHT22;4031;49.758;6.120;2023-01-15T01:41:33;5.50;99.90
7972;DHT22;4031;49.758;6.120;2023-01-15T01:44:05;5.50;99.90
7972;DHT22;4031;49.758;6.120;2023-01-15T01:46:35;5.50;99.90
7972;DHT22;4031;49.758;6.120;2023-01-15T01:49:08;5.50;99.90
7972;DHT22;4031;49.758;6.120;2023-01-15T01:51:40;5.50;99.90
7972;DHT22;4031;49.758;6.120;2023-01-15T01:54:09;5.50;99.90
7972;DHT22;4031;49.758;6.120;2023-01-15T01:56:37;5.50;99.90
7972;DHT22;4031;49.758;6.120;2023-01-15T01:59:04;5.50;99.90
7972;DHT22;4031;49.758;6.120;2023-01-15T02:01:31;5.50;99.90
7972;DHT22;4031;49.758;6.120;2023-01-15T02:03:57;5.50;99.90
7972;DHT22;4031;49.758;6.120;2023-01-15T02:06:24;5.50;99.90
7972;DHT22;4031;49.758;6.120;2023-01-15T02:08:50;5.50;99.90
7972;DHT22;4031;49.758;6.120;2023-01-15T02:11:20;5.50;99.90
7972;DHT22;4031;49.758;6.120;2023-01-15T02:17:02;5.50;99.90
7972;DHT22;4031;49.758;6.120;2023-01-15T02:22:35;5.40;99.90
7972;DHT22;4031;49.758;6.120;2023-01-15T02:25:39;5.40;99.90
7972;DHT22;4031;49.758;6.120;2023-01-15T02:28:18;5.40;99.90
7972;DHT22;4031;49.758;6.120;2023-01-15T02:31:10;5.40;99.90
7972;DHT22;4031;49.758;6.120;2023-01-15T02:33:41;5.40;99.90
7972;DHT22;4031;49.758;6.120;2023-01-15T02:36:14;5.40;99.90
7972;DHT22;4031;49.758;6.120;2023-01-15T02:38:46;5.40;99.90
7972;DHT22;4031;49.758;6.120;2023-01-15T02:41:14;5.40;99.90
7972;DHT22;4031;49.758;6.120;2023-01-15T02:43:45;5.40;99.90
7972;DHT22;4031;49.758;6.120;2023-01-15T02:46:14;5.50;99.90
7972;DHT22;4031;49.758;6.120;2023-01-15T02:48:42;5.40;99.90
7972;DHT22;4031;49.758;6.120;2023-01-15T02:51:14;5.50;99.90
7972;DHT22;4031;49.758;6.120;2023-01-15T02:53:44;5.50;99.90
7972;DHT22;4031;49.758;6.120;2023-01-15T02:56:14;5.50;99.90
7972;DHT22;4031;49.758;6.120;2023-01-15T02:58:43;5.50;99.90
7972;DHT22;4031;49.758;6.120;2023-01-15T03:01:13;5.50;99.90
7972;DHT22;4031;49.758;6.120;2023-01-15T03:06:37;5.40;99.90
7972;DHT22;4031;49.758;6.120;2023-01-15T03:09:06;5.30;99.90
7972;DHT22;4031;49.758;6.120;2023-01-15T03:11:43;5.40;99.90
7972;DHT22;4031;49.758;6.120;2023-01-15T03:14:19;5.30;99.90
7972;DHT22;4031;49.758;6.120;2023-01-15T03:16:58;5.30;99.90
7972;DHT22;4031;49.758;6.120;2023-01-15T03:19:41;5.30;99.90
7972;DHT22;4031;49.758;6.120;2023-01-15T03:22:18;5.20;99.90
7972;DHT22;4031;49.758;6.120;2023-01-15T03:24:51;5.30;99.90
7972;DHT22;4031;49.758;6.120;2023-01-15T03:27:20;5.20;99.90
7972;DHT22;4031;49.758;6.120;2023-01-15T03:29:49;5.20;99.90
7972;DHT22;4031;49.758;6.120;2023-01-15T03:32:18;5.10;99.90
7972;DHT22;4031;49.758;6.120;2023-01-15T03:34:52;5.10;99.90
7972;DHT22;4031;49.758;6.120;2023-01-15T03:37:20;5.10;99.90
7972;DHT22;4031;49.758;6.120;2023-01-15T03:39:48;5.00;99.90
7972;DHT22;4031;49.758;6.120;2023-01-15T03:45:06;5.10;99.90
7972;DHT22;4031;49.758;6.120;2023-01-15T03:48:01;5.00;99.90
7972;DHT22;4031;49.758;6.120;2023-01-15T03:50:46;5.00;99.90
7972;DHT22;4031;49.758;6.120;2023-01-15T03:53:45;4.90;99.90
7972;DHT22;4031;49.758;6.120;2023-01-15T03:56:22;4.90;99.90
7972;DHT22;4031;49.758;6.120;2023-01-15T03:59:15;4.90;99.90
7972;DHT22;4031;49.758;6.120;2023-01-15T04:01:44;4.90;99.90
7972;DHT22;4031;49.758;6.120;2023-01-15T04:04:12;4.80;99.90
7972;DHT22;4031;49.758;6.120;2023-01-15T04:06:39;4.80;99.90
7972;DHT22;4031;49.758;6.120;2023-01-15T04:09:07;4.80;99.90
7972;DHT22;4031;49.758;6.120;2023-01-15T04:11:35;4.80;99.90
7972;DHT22;4031;49.758;6.120;2023-01-15T04:14:02;4.80;99.90
7972;DHT22;4031;49.758;6.120;2023-01-15T04:16:30;4.70;99.90
7972;DHT22;4031;49.758;6.120;2023-01-15T04:18:57;4.70;99.90
7972;DHT22;4031;49.758;6.120;2023-01-15T04:21:23;4.70;99.90
7972;DHT22;4031;49.758;6.120;2023-01-15T04:23:49;4.60;99.90
7972;DHT22;4031;49.758;6.120;2023-01-15T04:26:16;4.60;99.90
7972;DHT22;4031;49.758;6.120;2023-01-15T04:28:42;4.60;99.90
7972;DHT22;4031;49.758;6.120;2023-01-15T04:31:08;4.60;99.90
7972;DHT22;4031;49.758;6.120;2023-01-15T04:33:34;4.50;99.90
7972;DHT22;4031;49.758;6.120;2023-01-15T04:36:00;4.50;99.90
7972;DHT22;4031;49.758;6.120;2023-01-15T04:38:27;4.50;99.90
7972;DHT22;4031;49.758;6.120;2023-01-15T04:40:53;4.50;99.90
7972;DHT22;4031;49.758;6.120;2023-01-15T04:43:37;4.50;99.90
7972;DHT22;4031;49.758;6.120;2023-01-15T04:46:29;4.50;99.90
7972;DHT22;4031;49.758;6.120;2023-01-15T04:48:54;4.40;99.90
7972;DHT22;4031;49.758;6.120;2023-01-15T04:51:20;4.40;99.90
7972;DHT22;4031;49.758;6.120;2023-01-15T04:53:46;4.40;99.90
7972;DHT22;4031;49.758;6.120;2023-01-15T04:56:11;4.40;99.90
7972;DHT22;4031;49.758;6.120;2023-01-15T04:58:37;4.30;99.90
7972;DHT22;4031;49.758;6.120;2023-01-15T05:01:12;4.30;99.90
7972;DHT22;4031;49.758;6.120;2023-01-15T05:03:39;4.30;99.90
7972;DHT22;4031;49.758;6.120;2023-01-15T05:06:05;4.40;99.90
7972;DHT22;4031;49.758;6.120;2023-01-15T05:08:31;4.30;99.90
7972;DHT22;4031;49.758;6.120;2023-01-15T05:11:02;4.30;99.90
7972;DHT22;4031;49.758;6.120;2023-01-15T05:13:30;4.30;99.90
7972;DHT22;4031;49.758;6.120;2023-01-15T05:18:39;4.20;99.90
7972;DHT22;4031;49.758;6.120;2023-01-15T05:21:13;4.10;99.90
7972;DHT22;4031;49.758;6.120;2023-01-15T05:23:39;4.00;99.90
7972;DHT22;4031;49.758;6.120;2023-01-15T05:26:05;4.00;99.90
7972;DHT22;4031;49.758;6.120;2023-01-15T05:28:31;4.00;99.90
7972;DHT22;4031;49.758;6.120;2023-01-15T05:30:57;4.00;99.90
7972;DHT22;4031;49.758;6.120;2023-01-15T05:33:22;3.90;99.90
7972;DHT22;4031;49.758;6.120;2023-01-15T05:35:48;4.00;99.90
7972;DHT22;4031;49.758;6.120;2023-01-15T05:38:14;3.90;99.90
7972;DHT22;4031;49.758;6.120;2023-01-15T05:40:39;3.90;99.90
7972;DHT22;4031;49.758;6.120;2023-01-15T05:43:05;3.90;99.90
7972;DHT22;4031;49.758;6.120;2023-01-15T05:45:33;3.90;99.90
7972;DHT22;4031;49.758;6.120;2023-01-15T05:48:00;3.90;99.90
7972;DHT22;4031;49.758;6.120;2023-01-15T05:50:26;3.90;99.90
7972;DHT22;4031;49.758;6.120;2023-01-15T05:52:52;4.00;99.90
7972;DHT22;4031;49.758;6.120;2023-01-15T05:55:17;4.00;99.90
7972;DHT22;4031;49.758;6.120;2023-01-15T05:57:43;4.00;99.90
7972;DHT22;4031;49.758;6.120;2023-01-15T06:00:09;4.00;99.90
7972;DHT22;4031;49.758;6.120;2023-01-15T06:02:35;4.00;99.90
7972;DHT22;4031;49.758;6.120;2023-01-15T06:05:01;4.00;99.90
7972;DHT22;4031;49.758;6.120;2023-01-15T06:07:27;4.00;99.90
7972;DHT22;4031;49.758;6.120;2023-01-15T06:09:52;3.90;99.90
7972;DHT22;4031;49.758;6.120;2023-01-15T06:12:18;4.00;99.90
7972;DHT22;4031;49.758;6.120;2023-01-15T06:14:44;3.90;99.90
7972;DHT22;4031;49.758;6.120;2023-01-15T06:17:09;3.90;99.90
7972;DHT22;4031;49.758;6.120;2023-01-15T06:19:35;4.00;99.90
7972;DHT22;4031;49.758;6.120;2023-01-15T06:22:01;3.90;99.90
7972;DHT22;4031;49.758;6.120;2023-01-15T06:24:28;3.90;99.90
7972;DHT22;4031;49.758;6.120;2023-01-15T06:26:53;3.90;99.90
7972;DHT22;4031;49.758;6.120;2023-01-15T06:29:19;3.90;99.90
7972;DHT22;4031;49.758;6.120;2023-01-15T06:31:45;3.90;99.90
7972;DHT22;4031;49.758;6.120;2023-01-15T06:34:12;3.90;99.90
7972;DHT22;4031;49.758;6.120;2023-01-15T06:36:38;3.90;99.90
7972;DHT22;4031;49.758;6.120;2023-01-15T06:39:03;3.90;99.90
7972;DHT22;4031;49.758;6.120;2023-01-15T06:41:29;3.90;99.90
7972;DHT22;4031;49.758;6.120;2023-01-15T06:44:16;4.00;99.90
7972;DHT22;4031;49.758;6.120;2023-01-15T06:47:15;3.90;99.90
7972;DHT22;4031;49.758;6.120;2023-01-15T06:49:52;3.90;99.90
7972;DHT22;4031;49.758;6.120;2023-01-15T06:52:26;3.90;99.90
7972;DHT22;4031;49.758;6.120;2023-01-15T06:54:53;3.90;99.90
7972;DHT22;4031;49.758;6.120;2023-01-15T06:57:18;3.90;99.90
7972;DHT22;4031;49.758;6.120;2023-01-15T06:59:45;3.90;99.90
7972;DHT22;4031;49.758;6.120;2023-01-15T07:02:11;4.00;99.90
7972;DHT22;4031;49.758;6.120;2023-01-15T07:04:37;3.90;99.90
7972;DHT22;4031;49.758;6.120;2023-01-15T07:07:03;3.80;99.90
7972;DHT22;4031;49.758;6.120;2023-01-15T07:09:29;3.80;99.90
7972;DHT22;4031;49.758;6.120;2023-01-15T07:11:54;3.70;99.90
7972;DHT22;4031;49.758;6.120;2023-01-15T07:14:22;3.60;99.90
7972;DHT22;4031;49.758;6.120;2023-01-15T07:16:50;3.40;99.90
7972;DHT22;4031;49.758;6.120;2023-01-15T07:19:17;3.40;99.90
7972;DHT22;4031;49.758;6.120;2023-01-15T07:21:43;3.30;99.90
7972;DHT22;4031;49.758;6.120;2023-01-15T07:24:09;3.30;99.90
7972;DHT22;4031;49.758;6.120;2023-01-15T07:26:36;3.30;99.90
7972;DHT22;4031;49.758;6.120;2023-01-15T07:29:02;3.30;99.90
7972;DHT22;4031;49.758;6.120;2023-01-15T07:31:28;3.30;99.90
7972;DHT22;4031;49.758;6.120;2023-01-15T07:33:57;3.30;99.90
7972;DHT22;4031;49.758;6.120;2023-01-15T07:36:23;3.30;99.90
7972;DHT22;4031;49.758;6.120;2023-01-15T07:38:49;3.30;99.90
7972;DHT22;4031;49.758;6.120;2023-01-15T07:41:15;3.30;99.90
7972;DHT22;4031;49.758;6.120;2023-01-15T07:43:59;3.30;99.90
7972;DHT22;4031;49.758;6.120;2023-01-15T07:46:45;3.20;99.90
7972;DHT22;4031;49.758;6.120;2023-01-15T07:49:30;3.20;99.90
7972;DHT22;4031;49.758;6.120;2023-01-15T07:52:18;3.10;99.90
7972;DHT22;4031;49.758;6.120;2023-01-15T07:54:46;3.10;99.90
7972;DHT22;4031;49.758;6.120;2023-01-15T07:57:14;3.00;99.90
7972;DHT22;4031;49.758;6.120;2023-01-15T07:59:42;3.10;99.90
7972;DHT22;4031;49.758;6.120;2023-01-15T08:02:08;2.90;99.90
7972;DHT22;4031;49.758;6.120;2023-01-15T08:04:34;2.90;99.90
7972;DHT22;4031;49.758;6.120;2023-01-15T08:07:01;2.70;99.90
7972;DHT22;4031;49.758;6.120;2023-01-15T08:09:28;2.70;99.90
7972;DHT22;4031;49.758;6.120;2023-01-15T08:11:55;2.60;99.90
7972;DHT22;4031;49.758;6.120;2023-01-15T08:14:41;2.60;99.90
7972;DHT22;4031;49.758;6.120;2023-01-15T08:17:26;2.50;99.90
7972;DHT22;4031;49.758;6.120;2023-01-15T08:19:51;2.40;99.90
7972;DHT22;4031;49.758;6.120;2023-01-15T08:22:17;2.30;99.90
7972;DHT22;4031;49.758;6.120;2023-01-15T08:24:43;2.20;99.90
7972;DHT22;4031;49.758;6.120;2023-01-15T08:27:09;2.30;99.90
7972;DHT22;4031;49.758;6.120;2023-01-15T08:29:34;2.30;99.90
7972;DHT22;4031;49.758;6.120;2023-01-15T08:32:00;2.40;99.90
7972;DHT22;4031;49.758;6.120;2023-01-15T08:34:26;2.50;99.90
7972;DHT22;4031;49.758;6.120;2023-01-15T08:36:51;2.60;99.90
7972;DHT22;4031;49.758;6.120;2023-01-15T08:39:22;2.60;99.90
7972;DHT22;4031;49.758;6.120;2023-01-15T08:41:47;2.70;99.90
7972;DHT22;4031;49.758;6.120;2023-01-15T08:44:13;2.70;99.90
7972;DHT22;4031;49.758;6.120;2023-01-15T08:46:41;2.70;99.90
7972;DHT22;4031;49.758;6.120;2023-01-15T08:49:09;2.70;99.90
7972;DHT22;4031;49.758;6.120;2023-01-15T08:51:35;2.70;99.90
7972;DHT22;4031;49.758;6.120;2023-01-15T08:54:07;2.70;99.90
7972;DHT22;4031;49.758;6.120;2023-01-15T08:56:33;2.70;99.90
7972;DHT22;4031;49.758;6.120;2023-01-15T08:59:03;2.70;99.90
7972;DHT22;4031;49.758;6.120;2023-01-15T09:01:30;2.80;99.90
7972;DHT22;4031;49.758;6.120;2023-01-15T09:03:55;2.80;99.90
7972;DHT22;4031;49.758;6.120;2023-01-15T09:06:22;2.80;99.90
7972;DHT22;4031;49.758;6.120;2023-01-15T09:08:48;2.90;99.90
7972;DHT22;4031;49.758;6.120;2023-01-15T09:11:13;2.90;99.90
7972;DHT22;4031;49.758;6.120;2023-01-15T09:13:39;2.90;99.90
7972;DHT22;4031;49.758;6.120;2023-01-15T09:16:06;3.00;99.90
7972;DHT22;4031;49.758;6.120;2023-01-15T09:18:32;3.00;99.90
7972;DHT22;4031;49.758;6.120;2023-01-15T09:20:58;3.10;99.90
7972;DHT22;4031;49.758;6.120;2023-01-15T09:23:24;3.10;99.90
7972;DHT22;4031;49.758;6.120;2023-01-15T09:25:58;3.30;99.90
7972;DHT22;4031;49.758;6.120;2023-01-15T09:28:26;3.30;99.90
7972;DHT22;4031;49.758;6.120;2023-01-15T09:30:53;3.30;99.90
7972;DHT22;4031;49.758;6.120;2023-01-15T09:33:19;3.40;99.90
7972;DHT22;4031;49.758;6.120;2023-01-15T09:35:46;3.50;99.90
7972;DHT22;4031;49.758;6.120;2023-01-15T09:38:17;3.40;99.90
7972;DHT22;4031;49.758;6.120;2023-01-15T09:40:54;3.40;99.90
7972;DHT22;4031;49.758;6.120;2023-01-15T09:43:58;3.50;99.90
7972;DHT22;4031;49.758;6.120;2023-01-15T09:49:49;3.70;99.90
7972;DHT22;4031;49.758;6.120;2023-01-15T09:55:29;4.20;99.90
7972;DHT22;4031;49.758;6.120;2023-01-15T09:57:58;4.70;99.90
7972;DHT22;4031;49.758;6.120;2023-01-15T10:00:29;4.80;99.90
7972;DHT22;4031;49.758;6.120;2023-01-15T10:03:06;4.80;99.90
7972;DHT22;4031;49.758;6.120;2023-01-15T10:05:44;4.80;99.90
7972;DHT22;4031;49.758;6.120;2023-01-15T10:08:28;4.90;99.90
7972;DHT22;4031;49.758;6.120;2023-01-15T10:13:58;4.60;99.90
7972;DHT22;4031;49.758;6.120;2023-01-15T10:16:28;4.50;99.90
7972;DHT22;4031;49.758;6.120;2023-01-15T10:18:56;4.40;99.90
7972;DHT22;4031;49.758;6.120;2023-01-15T10:21:54;4.40;99.90
7972;DHT22;4031;49.758;6.120;2023-01-15T10:27:14;4.60;99.90
7972;DHT22;4031;49.758;6.120;2023-01-15T10:29:48;4.70;99.90
7972;DHT22;4031;49.758;6.120;2023-01-15T10:32:40;4.60;99.90
7972;DHT22;4031;49.758;6.120;2023-01-15T10:38:20;4.40;99.90
7972;DHT22;4031;49.758;6.120;2023-01-15T10:41:09;4.30;99.90
7972;DHT22;4031;49.758;6.120;2023-01-15T10:46:29;4.70;99.90
7972;DHT22;4031;49.758;6.120;2023-01-15T10:49:13;5.50;99.90
7972;DHT22;4031;49.758;6.120;2023-01-15T10:51:46;6.20;99.90
7972;DHT22;4031;49.758;6.120;2023-01-15T10:54:44;6.80;99.90
7972;DHT22;4031;49.758;6.120;2023-01-15T10:57:49;7.20;99.90
7972;DHT22;4031;49.758;6.120;2023-01-15T11:00:18;7.40;99.90
7972;DHT22;4031;49.758;6.120;2023-01-15T11:03:00;7.40;99.90
7972;DHT22;4031;49.758;6.120;2023-01-15T11:05:30;7.60;99.90
7972;DHT22;4031;49.758;6.120;2023-01-15T11:07:57;7.80;99.90
7972;DHT22;4031;49.758;6.120;2023-01-15T11:10:23;7.50;99.90
7972;DHT22;4031;49.758;6.120;2023-01-15T11:13:01;7.00;99.90
7972;DHT22;4031;49.758;6.120;2023-01-15T11:15:55;6.60;99.90
7972;DHT22;4031;49.758;6.120;2023-01-15T11:18:41;6.60;99.90
7972;DHT22;4031;49.758;6.120;2023-01-15T11:21:28;6.50;99.90
7972;DHT22;4031;49.758;6.120;2023-01-15T11:23:56;7.40;99.90
7972;DHT22;4031;49.758;6.120;2023-01-15T11:28:58;8.00;99.90
7972;DHT22;4031;49.758;6.120;2023-01-15T11:31:36;8.20;99.90
7972;DHT22;4031;49.758;6.120;2023-01-15T11:34:05;8.00;99.90
7972;DHT22;4031;49.758;6.120;2023-01-15T11:36:39;7.70;99.90
7972;DHT22;4031;49.758;6.120;2023-01-15T11:39:05;7.30;99.90
7972;DHT22;4031;49.758;6.120;2023-01-15T11:41:47;7.00;99.90
7972;DHT22;4031;49.758;6.120;2023-01-15T11:44:31;6.80;99.90
7972;DHT22;4031;49.758;6.120;2023-01-15T11:47:17;6.70;99.90
7972;DHT22;4031;49.758;6.120;2023-01-15T11:50:16;6.80;99.90
7972;DHT22;4031;49.758;6.120;2023-01-15T11:53:01;6.90;99.90
7972;DHT22;4031;49.758;6.120;2023-01-15T11:55:27;7.10;99.90
7972;DHT22;4031;49.758;6.120;2023-01-15T11:57:54;7.00;99.90
7972;DHT22;4031;49.758;6.120;2023-01-15T12:00:26;6.80;99.90
7972;DHT22;4031;49.758;6.120;2023-01-15T12:03:02;6.70;99.90
7972;DHT22;4031;49.758;6.120;2023-01-15T12:05:33;6.60;99.90
7972;DHT22;4031;49.758;6.120;2023-01-15T12:08:46;6.50;99.90
7972;DHT22;4031;49.758;6.120;2023-01-15T12:17:48;6.10;99.90
7972;DHT22;4031;49.758;6.120;2023-01-15T12:30:38;6.70;99.90
7972;DHT22;4031;49.758;6.120;2023-01-15T12:36:32;6.90;99.90
7972;DHT22;4031;49.758;6.120;2023-01-15T12:39:08;6.90;99.90
7972;DHT22;4031;49.758;6.120;2023-01-15T12:41:41;7.10;99.90
7972;DHT22;4031;49.758;6.120;2023-01-15T12:44:37;7.10;99.90
7972;DHT22;4031;49.758;6.120;2023-01-15T13:04:51;6.20;99.90
7972;DHT22;4031;49.758;6.120;2023-01-15T13:12:39;6.10;99.90
7972;DHT22;4031;49.758;6.120;2023-01-15T13:15:05;6.20;99.90
7972;DHT22;4031;49.758;6.120;2023-01-15T13:17:47;6.10;99.90
7972;DHT22;4031;49.758;6.120;2023-01-15T13:20:47;6.10;99.90
7972;DHT22;4031;49.758;6.120;2023-01-15T13:23:47;5.90;99.90
7972;DHT22;4031;49.758;6.120;2023-01-15T13:29:00;5.60;99.90
7972;DHT22;4031;49.758;6.120;2023-01-15T13:31:51;5.40;99.90
7972;DHT22;4031;49.758;6.120;2023-01-15T13:39:56;4.90;99.90
7972;DHT22;4031;49.758;6.120;2023-01-15T13:42:26;4.80;99.90
7972;DHT22;4031;49.758;6.120;2023-01-15T13:47:32;4.80;99.90
7972;DHT22;4031;49.758;6.120;2023-01-15T13:50:03;4.90;99.90
7972;DHT22;4031;49.758;6.120;2023-01-15T13:52:35;4.90;99.90
7972;DHT22;4031;49.758;6.120;2023-01-15T13:55:19;5.00;99.90
7972;DHT22;4031;49.758;6.120;2023-01-15T13:57:54;5.00;99.90
7972;DHT22;4031;49.758;6.120;2023-01-15T14:00:33;5.00;99.90
7972;DHT22;4031;49.758;6.120;2023-01-15T14:03:59;5.10;99.90
7972;DHT22;4031;49.758;6.120;2023-01-15T14:06:44;5.00;99.90
7972;DHT22;4031;49.758;6.120;2023-01-15T14:14:48;4.90;99.90
7972;DHT22;4031;49.758;6.120;2023-01-15T14:34:26;5.10;99.90
7972;DHT22;4031;49.758;6.120;2023-01-15T14:37:31;5.10;99.90
7972;DHT22;4031;49.758;6.120;2023-01-15T14:40:03;5.00;99.90
7972;DHT22;4031;49.758;6.120;2023-01-15T14:42:36;5.00;99.90
7972;DHT22;4031;49.758;6.120;2023-01-15T14:45:33;5.00;99.90
7972;DHT22;4031;49.758;6.120;2023-01-15T14:50:54;5.00;99.90
7972;DHT22;4031;49.758;6.120;2023-01-15T14:53:42;5.10;99.90
7972;DHT22;4031;49.758;6.120;2023-01-15T15:01:40;5.00;99.90
7972;DHT22;4031;49.758;6.120;2023-01-15T15:07:10;4.90;99.90
7972;DHT22;4031;49.758;6.120;2023-01-15T15:12:36;4.80;99.90
7972;DHT22;4031;49.758;6.120;2023-01-15T15:18:26;4.80;99.90
7972;DHT22;4031;49.758;6.120;2023-01-15T15:21:17;4.80;99.90
7972;DHT22;4031;49.758;6.120;2023-01-15T15:23:55;4.80;99.90
7972;DHT22;4031;49.758;6.120;2023-01-15T15:26:34;4.80;99.90
7972;DHT22;4031;49.758;6.120;2023-01-15T15:34:25;4.70;99.90
7972;DHT22;4031;49.758;6.120;2023-01-15T15:36:53;4.60;99.90
7972;DHT22;4031;49.758;6.120;2023-01-15T15:40:14;4.70;99.90
7972;DHT22;4031;49.758;6.120;2023-01-15T15:42:25;4.70;99.90
7972;DHT22;4031;49.758;6.120;2023-01-15T15:48:10;4.60;99.90
7972;DHT22;4031;49.758;6.120;2023-01-15T15:51:00;4.60;99.90
7972;DHT22;4031;49.758;6.120;2023-01-15T15:53:27;4.60;99.90
7972;DHT22;4031;49.758;6.120;2023-01-15T15:55:54;4.60;99.90
7972;DHT22;4031;49.758;6.120;2023-01-15T15:58:29;4.60;99.90
7972;DHT22;4031;49.758;6.120;2023-01-15T16:00:57;4.60;99.90
7972;DHT22;4031;49.758;6.120;2023-01-15T16:03:25;4.60;99.90
7972;DHT22;4031;49.758;6.120;2023-01-15T16:06:03;4.60;99.90
7972;DHT22;4031;49.758;6.120;2023-01-15T16:08:32;4.60;99.90
7972;DHT22;4031;49.758;6.120;2023-01-15T16:11:01;4.60;99.90
7972;DHT22;4031;49.758;6.120;2023-01-15T16:13:40;4.50;99.90
7972;DHT22;4031;49.758;6.120;2023-01-15T16:16:09;4.50;99.90
7972;DHT22;4031;49.758;6.120;2023-01-15T16:18:41;4.50;99.90
7972;DHT22;4031;49.758;6.120;2023-01-15T16:21:10;4.40;99.90
7972;DHT22;4031;49.758;6.120;2023-01-15T16:23:41;4.40;99.90
7972;DHT22;4031;49.758;6.120;2023-01-15T16:28:49;4.40;99.90
7972;DHT22;4031;49.758;6.120;2023-01-15T16:31:19;4.40;99.90
7972;DHT22;4031;49.758;6.120;2023-01-15T16:33:55;4.40;99.90
7972;DHT22;4031;49.758;6.120;2023-01-15T16:36:22;4.40;99.90
7972;DHT22;4031;49.758;6.120;2023-01-15T16:38:49;4.40;99.90
7972;DHT22;4031;49.758;6.120;2023-01-15T16:41:28;4.40;99.90
7972;DHT22;4031;49.758;6.120;2023-01-15T16:44:02;4.40;99.90
7972;DHT22;4031;49.758;6.120;2023-01-15T16:46:31;4.40;99.90
7972;DHT22;4031;49.758;6.120;2023-01-15T16:51:46;4.20;99.90
7972;DHT22;4031;49.758;6.120;2023-01-15T16:57:03;4.20;99.90
7972;DHT22;4031;49.758;6.120;2023-01-15T17:02:03;4.30;99.90
7972;DHT22;4031;49.758;6.120;2023-01-15T17:04:34;4.20;99.90
7972;DHT22;4031;49.758;6.120;2023-01-15T17:07:13;4.20;99.90
7972;DHT22;4031;49.758;6.120;2023-01-15T17:09:44;4.30;99.90
7972;DHT22;4031;49.758;6.120;2023-01-15T17:12:29;4.30;99.90
7972;DHT22;4031;49.758;6.120;2023-01-15T17:17:52;4.30;99.90
7972;DHT22;4031;49.758;6.120;2023-01-15T17:20:20;4.30;99.90
7972;DHT22;4031;49.758;6.120;2023-01-15T17:22:52;4.40;99.90
7972;DHT22;4031;49.758;6.120;2023-01-15T17:27:50;4.30;99.90
7972;DHT22;4031;49.758;6.120;2023-01-15T17:30:17;4.20;99.90
7972;DHT22;4031;49.758;6.120;2023-01-15T17:32:43;4.10;99.90
7972;DHT22;4031;49.758;6.120;2023-01-15T17:35:25;4.00;99.90
7972;DHT22;4031;49.758;6.120;2023-01-15T17:37:52;4.00;99.90
7972;DHT22;4031;49.758;6.120;2023-01-15T17:40:18;4.00;99.90
7972;DHT22;4031;49.758;6.120;2023-01-15T17:42:45;4.10;99.90
7972;DHT22;4031;49.758;6.120;2023-01-15T17:45:20;4.10;99.90
7972;DHT22;4031;49.758;6.120;2023-01-15T17:47:47;4.20;99.90
7972;DHT22;4031;49.758;6.120;2023-01-15T17:50:13;4.20;99.90
7972;DHT22;4031;49.758;6.120;2023-01-15T17:52:40;4.20;99.90
7972;DHT22;4031;49.758;6.120;2023-01-15T17:55:13;4.10;99.90
7972;DHT22;4031;49.758;6.120;2023-01-15T17:58:01;4.10;99.90
7972;DHT22;4031;49.758;6.120;2023-01-15T18:00:45;4.10;99.90
7972;DHT22;4031;49.758;6.120;2023-01-15T18:03:31;4.20;99.90
7972;DHT22;4031;49.758;6.120;2023-01-15T18:06:16;4.20;99.90
7972;DHT22;4031;49.758;6.120;2023-01-15T18:08:46;4.30;99.90
7972;DHT22;4031;49.758;6.120;2023-01-15T18:11:18;4.20;99.90
7972;DHT22;4031;49.758;6.120;2023-01-15T18:13:44;4.20;99.90
7972;DHT22;4031;49.758;6.120;2023-01-15T18:16:10;4.10;99.90
7972;DHT22;4031;49.758;6.120;2023-01-15T18:18:36;4.10;99.90
7972;DHT22;4031;49.758;6.120;2023-01-15T18:21:02;4.10;99.90
7972;DHT22;4031;49.758;6.120;2023-01-15T18:23:28;4.00;99.90
7972;DHT22;4031;49.758;6.120;2023-01-15T18:25:54;4.00;99.90
7972;DHT22;4031;49.758;6.120;2023-01-15T18:28:20;4.00;99.90
7972;DHT22;4031;49.758;6.120;2023-01-15T18:30:46;4.00;99.90
7972;DHT22;4031;49.758;6.120;2023-01-15T18:33:13;4.10;99.90
7972;DHT22;4031;49.758;6.120;2023-01-15T18:35:38;4.10;99.90
7972;DHT22;4031;49.758;6.120;2023-01-15T18:38:04;4.10;99.90
7972;DHT22;4031;49.758;6.120;2023-01-15T18:40:30;4.10;99.90
7972;DHT22;4031;49.758;6.120;2023-01-15T18:42:58;4.10;99.90
7972;DHT22;4031;49.758;6.120;2023-01-15T18:45:46;4.10;99.90
7972;DHT22;4031;49.758;6.120;2023-01-15T18:48:31;4.00;99.90
7972;DHT22;4031;49.758;6.120;2023-01-15T18:50:57;4.00;99.90
7972;DHT22;4031;49.758;6.120;2023-01-15T18:53:24;4.00;99.90
7972;DHT22;4031;49.758;6.120;2023-01-15T18:55:50;4.00;99.90
7972;DHT22;4031;49.758;6.120;2023-01-15T18:58:16;4.10;99.90
7972;DHT22;4031;49.758;6.120;2023-01-15T19:00:42;4.10;99.90
7972;DHT22;4031;49.758;6.120;2023-01-15T19:03:08;4.10;99.90
7972;DHT22;4031;49.758;6.120;2023-01-15T19:05:33;4.00;99.90
7972;DHT22;4031;49.758;6.120;2023-01-15T19:07:59;4.00;99.90
7972;DHT22;4031;49.758;6.120;2023-01-15T19:10:25;4.00;99.90
7972;DHT22;4031;49.758;6.120;2023-01-15T19:12:51;4.10;99.90
7972;DHT22;4031;49.758;6.120;2023-01-15T19:15:18;4.10;99.90
7972;DHT22;4031;49.758;6.120;2023-01-15T19:18:03;4.10;99.90
7972;DHT22;4031;49.758;6.120;2023-01-15T19:20:48;4.10;99.90